sensor_id;sensor_type;location;lat;lon;timestamp;pressure;altitude;pressure_sealevel;temperature;humidity
41515;BME280;27247;48.020;16.720;2023-11-18T00:02:40;100224.03;;;5.48;70.28
41515;BME280;27247;48.020;16.720;2023-11-18T00:06:53;100229.47;;;5.47;70.72
41515;BME280;27247;48.020;16.720;2023-11-18T00:11:04;100218.88;;;5.47;71.13
41515;BME280;27247;48.020;16.720;2023-11-18T00:15:15;100223.16;;;5.38;70.82
41515;BME280;27247;48.020;16.720;2023-11-18T00:19:25;100233.09;;;5.45;71.59
41515;BME280;27247;48.020;16.720;2023-11-18T00:23:35;100233.09;;;5.45;72.40
41515;BME280;27247;48.020;16.720;2023-11-18T00:27:46;100244.94;;;5.41;73.63
41515;BME280;27247;48.020;16.720;2023-11-18T00:31:56;100243.50;;;5.37;72.96
41515;BME280;27247;48.020;16.720;2023-11-18T00:36:07;100251.72;;;5.34;74.27
41515;BME280;27247;48.020;16.720;2023-11-18T00:40:17;100247.34;;;5.24;74.21
41515;BME280;27247;48.020;16.720;2023-11-18T00:44:30;100261.22;;;5.37;74.71
41515;BME280;27247;48.020;16.720;2023-11-18T00:48:40;100274.03;;;5.32;74.11
41515;BME280;27247;48.020;16.720;2023-11-18T00:52:51;100278.31;;;5.23;74.26
41515;BME280;27247;48.020;16.720;2023-11-18T00:57:01;100281.84;;;5.33;75.15
41515;BME280;27247;48.020;16.720;2023-11-18T01:01:12;100270.94;;;5.27;75.95
41515;BME280;27247;48.020;16.720;2023-11-18T01:05:22;100271.31;;;5.22;75.17
41515;BME280;27247;48.020;16.720;2023-11-18T01:09:32;100284.75;;;5.30;75.80
41515;BME280;27247;48.020;16.720;2023-11-18T01:13:49;100272.63;;;5.28;75.95
41515;BME280;27247;48.020;16.720;2023-11-18T01:17:59;100274.03;;;5.32;74.87
41515;BME280;27247;48.020;16.720;2023-11-18T01:22:10;100274.75;;;5.34;75.33
41515;BME280;27247;48.020;16.720;2023-11-18T01:26:21;100277.38;;;5.34;75.29
41515;BME280;27247;48.020;16.720;2023-11-18T01:30:33;100270.84;;;5.38;74.00
41515;BME280;27247;48.020;16.720;2023-11-18T01:34:43;100279.63;;;5.38;74.37
41515;BME280;27247;48.020;16.720;2023-11-18T01:38:59;100270.00;;;5.37;74.84
41515;BME280;27247;48.020;16.720;2023-11-18T01:43:10;100274.28;;;5.29;75.06
41515;BME280;27247;48.020;16.720;2023-11-18T01:47:24;100272.16;;;5.23;75.32
41515;BME280;27247;48.020;16.720;2023-11-18T01:51:36;100277.81;;;5.18;76.11
41515;BME280;27247;48.020;16.720;2023-11-18T01:55:47;100283.91;;;5.09;76.60
41515;BME280;27247;48.020;16.720;2023-11-18T01:59:59;100279.44;;;5.09;75.95
41515;BME280;27247;48.020;16.720;2023-11-18T02:04:09;100282.47;;;5.05;75.94
41515;BME280;27247;48.020;16.720;2023-11-18T02:08:20;100282.88;;;5.00;75.54
41515;BME280;27247;48.020;16.720;2023-11-18T02:16:42;100297.34;;;4.96;76.58
41515;BME280;27247;48.020;16.720;2023-11-18T02:20:54;100295.72;;;4.84;75.92
41515;BME280;27247;48.020;16.720;2023-11-18T02:25:09;100313.47;;;4.93;76.27
41515;BME280;27247;48.020;16.720;2023-11-18T02:29:20;100312.69;;;4.81;76.87
41515;BME280;27247;48.020;16.720;2023-11-18T02:33:34;100319.72;;;4.71;76.47
41515;BME280;27247;48.020;16.720;2023-11-18T02:37:47;100321.97;;;4.76;76.35
41515;BME280;27247;48.020;16.720;2023-11-18T02:41:58;100336.81;;;4.67;76.87
41515;BME280;27247;48.020;16.720;2023-11-18T02:46:11;100343.66;;;4.70;76.94
41515;BME280;27247;48.020;16.720;2023-11-18T02:50:25;100340.75;;;4.73;76.94
41515;BME280;27247;48.020;16.720;2023-11-18T02:54:37;100344.84;;;4.77;77.25
41515;BME280;27247;48.020;16.720;2023-11-18T02:58:47;100348.31;;;4.77;77.62
41515;BME280;27247;48.020;16.720;2023-11-18T03:02:58;100350.22;;;4.87;78.23
41515;BME280;27247;48.020;16.720;2023-11-18T03:07:09;100353.00;;;4.85;78.85
41515;BME280;27247;48.020;16.720;2023-11-18T03:11:19;100356.22;;;4.89;78.64
41515;BME280;27247;48.020;16.720;2023-11-18T03:15:30;100357.31;;;4.86;78.64
41515;BME280;27247;48.020;16.720;2023-11-18T03:19:40;100351.06;;;4.87;78.07
41515;BME280;27247;48.020;16.720;2023-11-18T03:23:51;100347.81;;;4.84;78.84
41515;BME280;27247;48.020;16.720;2023-11-18T03:28:03;100351.69;;;4.79;79.40
41515;BME280;27247;48.020;16.720;2023-11-18T03:32:16;100359.75;;;4.78;78.45
41515;BME280;27247;48.020;16.720;2023-11-18T03:36:26;100348.19;;;4.79;79.32
41515;BME280;27247;48.020;16.720;2023-11-18T03:40:37;100347.41;;;4.67;79.25
41515;BME280;27247;48.020;16.720;2023-11-18T03:44:48;100343.66;;;4.70;79.74
41515;BME280;27247;48.020;16.720;2023-11-18T03:48:58;100352.81;;;4.66;79.77
41515;BME280;27247;48.020;16.720;2023-11-18T03:53:08;100359.09;;;4.65;78.60
41515;BME280;27247;48.020;16.720;2023-11-18T03:57:19;100356.44;;;4.65;78.62
41515;BME280;27247;48.020;16.720;2023-11-18T04:01:29;100362.06;;;4.71;78.50
41515;BME280;27247;48.020;16.720;2023-11-18T04:05:39;100376.41;;;4.69;77.00
41515;BME280;27247;48.020;16.720;2023-11-18T04:09:50;100375.97;;;4.85;76.29
41515;BME280;27247;48.020;16.720;2023-11-18T04:14:00;100373.66;;;4.91;74.95
41515;BME280;27247;48.020;16.720;2023-11-18T04:18:10;100378.09;;;5.02;74.32
41515;BME280;27247;48.020;16.720;2023-11-18T04:22:21;100367.94;;;5.07;74.12
41515;BME280;27247;48.020;16.720;2023-11-18T04:26:32;100369.50;;;5.09;74.70
41515;BME280;27247;48.020;16.720;2023-11-18T04:30:42;100366.97;;;5.08;74.48
41515;BME280;27247;48.020;16.720;2023-11-18T04:34:52;100375.63;;;5.10;74.25
41515;BME280;27247;48.020;16.720;2023-11-18T04:39:03;100386.69;;;5.15;74.77
41515;BME280;27247;48.020;16.720;2023-11-18T04:43:13;100395.72;;;5.12;75.22
41515;BME280;27247;48.020;16.720;2023-11-18T04:47:25;100392.81;;;5.16;74.89
41515;BME280;27247;48.020;16.720;2023-11-18T04:51:35;100400.78;;;5.16;75.17
41515;BME280;27247;48.020;16.720;2023-11-18T04:55:45;100419.44;;;5.14;76.10
41515;BME280;27247;48.020;16.720;2023-11-18T04:59:56;100419.94;;;5.08;76.33
41515;BME280;27247;48.020;16.720;2023-11-18T05:04:06;100424.41;;;5.07;77.43
41515;BME280;27247;48.020;16.720;2023-11-18T05:08:19;100430.22;;;5.01;78.02
41515;BME280;27247;48.020;16.720;2023-11-18T05:12:29;100420.59;;;5.00;77.42
41515;BME280;27247;48.020;16.720;2023-11-18T05:16:40;100430.13;;;4.92;76.80
41515;BME280;27247;48.020;16.720;2023-11-18T05:20:51;100439.00;;;5.02;77.36
41515;BME280;27247;48.020;16.720;2023-11-18T05:25:01;100442.72;;;4.99;75.87
41515;BME280;27247;48.020;16.720;2023-11-18T05:29:12;100439.94;;;5.12;75.52
41515;BME280;27247;48.020;16.720;2023-11-18T05:33:26;100436.19;;;5.14;74.81
41515;BME280;27247;48.020;16.720;2023-11-18T05:37:38;100436.78;;;5.18;75.60
41515;BME280;27247;48.020;16.720;2023-11-18T05:41:50;100442.94;;;5.07;77.62
41515;BME280;27247;48.020;16.720;2023-11-18T05:46:01;100443.44;;;5.01;77.67
41515;BME280;27247;48.020;16.720;2023-11-18T05:50:30;100450.94;;;4.96;77.10
41515;BME280;27247;48.020;16.720;2023-11-18T05:54:41;100449.25;;;4.95;76.72
41515;BME280;27247;48.020;16.720;2023-11-18T05:58:52;100450.94;;;4.96;76.22
41515;BME280;27247;48.020;16.720;2023-11-18T06:03:05;100456.81;;;5.00;76.32
41515;BME280;27247;48.020;16.720;2023-11-18T06:07:16;100461.28;;;4.99;76.30
41515;BME280;27247;48.020;16.720;2023-11-18T06:11:29;100468.97;;;5.02;77.14
41515;BME280;27247;48.020;16.720;2023-11-18T06:15:41;100469.09;;;5.01;76.08
41515;BME280;27247;48.020;16.720;2023-11-18T06:19:53;100482.34;;;5.01;76.78
41515;BME280;27247;48.020;16.720;2023-11-18T06:24:04;100482.09;;;5.04;75.81
41515;BME280;27247;48.020;16.720;2023-11-18T06:28:15;100491.13;;;5.01;76.29
41515;BME280;27247;48.020;16.720;2023-11-18T06:32:26;100498.94;;;5.03;76.68
41515;BME280;27247;48.020;16.720;2023-11-18T06:36:37;100501.09;;;5.09;76.65
41515;BME280;27247;48.020;16.720;2023-11-18T06:40:47;100500.38;;;5.07;76.59
41515;BME280;27247;48.020;16.720;2023-11-18T06:45:02;100503.38;;;5.13;75.99
41515;BME280;27247;48.020;16.720;2023-11-18T06:49:12;100513.84;;;5.15;76.26
41515;BME280;27247;48.020;16.720;2023-11-18T06:53:25;100512.41;;;5.11;76.85
41515;BME280;27247;48.020;16.720;2023-11-18T06:57:36;100520.00;;;5.16;77.28
41515;BME280;27247;48.020;16.720;2023-11-18T07:01:47;100524.19;;;5.18;77.15
41515;BME280;27247;48.020;16.720;2023-11-18T07:05:57;100523.97;;;5.21;76.92
41515;BME280;27247;48.020;16.720;2023-11-18T07:10:08;100525.41;;;5.25;77.35
41515;BME280;27247;48.020;16.720;2023-11-18T07:14:22;100534.56;;;5.21;76.90
41515;BME280;27247;48.020;16.720;2023-11-18T07:18:33;100540.22;;;5.28;76.34
41515;BME280;27247;48.020;16.720;2023-11-18T07:22:43;100538.03;;;5.33;77.05
41515;BME280;27247;48.020;16.720;2023-11-18T07:26:53;100545.56;;;5.49;76.74
41515;BME280;27247;48.020;16.720;2023-11-18T07:31:04;100547.13;;;5.51;76.37
41515;BME280;27247;48.020;16.720;2023-11-18T07:35:15;100550.22;;;5.67;76.15
41515;BME280;27247;48.020;16.720;2023-11-18T07:39:25;100535.81;;;5.81;76.28
41515;BME280;27247;48.020;16.720;2023-11-18T07:43:54;100532.88;;;5.95;75.16
41515;BME280;27247;48.020;16.720;2023-11-18T07:48:07;100540.19;;;6.03;75.86
41515;BME280;27247;48.020;16.720;2023-11-18T07:52:17;100545.41;;;6.14;73.59
41515;BME280;27247;48.020;16.720;2023-11-18T07:56:27;100542.97;;;6.22;72.69
41515;BME280;27247;48.020;16.720;2023-11-18T08:00:43;100542.53;;;6.38;72.22
41515;BME280;27247;48.020;16.720;2023-11-18T08:04:55;100553.63;;;6.53;72.52
41515;BME280;27247;48.020;16.720;2023-11-18T08:09:06;100540.19;;;6.45;70.69
41515;BME280;27247;48.020;16.720;2023-11-18T08:13:21;100547.34;;;6.54;71.26
41515;BME280;27247;48.020;16.720;2023-11-18T08:17:32;100552.53;;;6.55;70.91
41515;BME280;27247;48.020;16.720;2023-11-18T08:21:43;100533.25;;;6.53;70.52
41515;BME280;27247;48.020;16.720;2023-11-18T08:25:54;100535.94;;;6.63;70.76
41515;BME280;27247;48.020;16.720;2023-11-18T08:30:06;100545.50;;;6.75;69.03
41515;BME280;27247;48.020;16.720;2023-11-18T08:34:21;100544.72;;;6.94;69.62
41515;BME280;27247;48.020;16.720;2023-11-18T08:38:31;100533.41;;;7.01;69.33
41515;BME280;27247;48.020;16.720;2023-11-18T08:42:43;100548.94;;;6.96;68.94
41515;BME280;27247;48.020;16.720;2023-11-18T08:46:57;100542.47;;;6.89;69.60
41515;BME280;27247;48.020;16.720;2023-11-18T08:51:09;100543.63;;;7.06;69.18
41515;BME280;27247;48.020;16.720;2023-11-18T08:55:20;100546.88;;;7.10;68.62
41515;BME280;27247;48.020;16.720;2023-11-18T08:59:31;100550.22;;;7.12;67.42
41515;BME280;27247;48.020;16.720;2023-11-18T09:03:43;100550.13;;;7.23;68.19
41515;BME280;27247;48.020;16.720;2023-11-18T09:07:53;100543.59;;;7.36;66.26
41515;BME280;27247;48.020;16.720;2023-11-18T09:12:07;100538.84;;;7.50;66.04
41515;BME280;27247;48.020;16.720;2023-11-18T09:16:19;100548.50;;;7.51;64.97
41515;BME280;27247;48.020;16.720;2023-11-18T09:20:32;100552.03;;;7.61;65.42
41515;BME280;27247;48.020;16.720;2023-11-18T09:24:42;100547.13;;;7.66;64.77
41515;BME280;27247;48.020;16.720;2023-11-18T09:28:54;100544.88;;;7.61;64.50
41515;BME280;27247;48.020;16.720;2023-11-18T09:33:05;100541.25;;;7.62;64.50
41515;BME280;27247;48.020;16.720;2023-11-18T09:37:24;100546.28;;;7.75;64.95
41515;BME280;27247;48.020;16.720;2023-11-18T09:41:35;100553.72;;;7.81;66.17
41515;BME280;27247;48.020;16.720;2023-11-18T09:45:46;100565.03;;;8.02;67.47
41515;BME280;27247;48.020;16.720;2023-11-18T09:50:00;100562.78;;;8.08;66.30
41515;BME280;27247;48.020;16.720;2023-11-18T09:54:19;100578.22;;;8.04;65.87
41515;BME280;27247;48.020;16.720;2023-11-18T09:58:40;100572.03;;;8.04;66.18
41515;BME280;27247;48.020;16.720;2023-11-18T10:02:54;100567.56;;;8.04;67.66
41515;BME280;27247;48.020;16.720;2023-11-18T10:07:07;100558.03;;;8.01;67.60
41515;BME280;27247;48.020;16.720;2023-11-18T10:11:17;100569.25;;;8.05;67.42
41515;BME280;27247;48.020;16.720;2023-11-18T10:15:28;100559.16;;;7.99;67.79
41515;BME280;27247;48.020;16.720;2023-11-18T10:24:01;100574.41;;;8.16;69.09
41515;BME280;27247;48.020;16.720;2023-11-18T10:28:35;100573.44;;;8.17;68.69
41515;BME280;27247;48.020;16.720;2023-11-18T10:33:01;100578.63;;;8.19;69.54
41515;BME280;27247;48.020;16.720;2023-11-18T10:37:16;100580.16;;;8.21;68.81
41515;BME280;27247;48.020;16.720;2023-11-18T10:41:27;100577.66;;;8.49;66.92
41515;BME280;27247;48.020;16.720;2023-11-18T10:45:40;100581.03;;;8.41;65.05
41515;BME280;27247;48.020;16.720;2023-11-18T10:49:51;100572.16;;;8.60;67.92
41515;BME280;27247;48.020;16.720;2023-11-18T10:54:01;100578.16;;;8.62;68.48
41515;BME280;27247;48.020;16.720;2023-11-18T10:58:13;100582.63;;;8.71;70.03
41515;BME280;27247;48.020;16.720;2023-11-18T11:02:24;100589.06;;;8.78;67.55
41515;BME280;27247;48.020;16.720;2023-11-18T11:06:35;100587.72;;;8.26;68.25
41515;BME280;27247;48.020;16.720;2023-11-18T11:10:46;100592.06;;;8.08;69.06
41515;BME280;27247;48.020;16.720;2023-11-18T11:15:07;100586.91;;;7.87;68.85
41515;BME280;27247;48.020;16.720;2023-11-18T11:23:50;100580.88;;;7.85;68.51
41515;BME280;27247;48.020;16.720;2023-11-18T11:32:30;100590.13;;;8.00;68.75
41515;BME280;27247;48.020;16.720;2023-11-18T11:36:49;100608.19;;;7.87;66.91
41515;BME280;27247;48.020;16.720;2023-11-18T11:41:01;100608.44;;;7.64;66.35
41515;BME280;27247;48.020;16.720;2023-11-18T11:45:12;100605.63;;;7.47;66.17
41515;BME280;27247;48.020;16.720;2023-11-18T11:49:41;100604.31;;;7.31;67.21
41515;BME280;27247;48.020;16.720;2023-11-18T11:54:09;100617.88;;;7.28;67.11
41515;BME280;27247;48.020;16.720;2023-11-18T11:58:34;100614.88;;;7.22;68.27
41515;BME280;27247;48.020;16.720;2023-11-18T12:02:50;100602.28;;;7.14;68.87
41515;BME280;27247;48.020;16.720;2023-11-18T12:07:05;100600.72;;;7.12;69.25
41515;BME280;27247;48.020;16.720;2023-11-18T12:11:17;100590.91;;;7.02;68.61
41515;BME280;27247;48.020;16.720;2023-11-18T12:15:53;100606.81;;;6.93;69.33
41515;BME280;27247;48.020;16.720;2023-11-18T12:20:38;100618.00;;;6.96;69.26
41515;BME280;27247;48.020;16.720;2023-11-18T12:29:32;100606.53;;;6.96;69.36
41515;BME280;27247;48.020;16.720;2023-11-18T12:38:24;100610.72;;;6.89;69.75
41515;BME280;27247;48.020;16.720;2023-11-18T12:43:01;100619.78;;;6.86;69.94
41515;BME280;27247;48.020;16.720;2023-11-18T12:47:16;100615.13;;;6.79;70.84
41515;BME280;27247;48.020;16.720;2023-11-18T12:51:32;100616.28;;;6.86;71.64
41515;BME280;27247;48.020;16.720;2023-11-18T12:55:44;100602.28;;;6.84;70.88
41515;BME280;27247;48.020;16.720;2023-11-18T12:59:59;100608.56;;;6.83;70.93
41515;BME280;27247;48.020;16.720;2023-11-18T13:04:10;100620.31;;;6.80;71.39
41515;BME280;27247;48.020;16.720;2023-11-18T13:08:20;100620.00;;;6.73;70.96
41515;BME280;27247;48.020;16.720;2023-11-18T13:12:33;100631.59;;;6.72;72.08
41515;BME280;27247;48.020;16.720;2023-11-18T13:16:44;100632.00;;;6.68;70.68
41515;BME280;27247;48.020;16.720;2023-11-18T13:20:56;100634.50;;;6.69;70.83
41515;BME280;27247;48.020;16.720;2023-11-18T13:25:08;100628.31;;;6.59;69.88
41515;BME280;27247;48.020;16.720;2023-11-18T13:29:19;100627.84;;;6.54;69.57
41515;BME280;27247;48.020;16.720;2023-11-18T13:33:31;100639.84;;;6.49;69.39
41515;BME280;27247;48.020;16.720;2023-11-18T13:37:42;100633.63;;;6.38;69.48
41515;BME280;27247;48.020;16.720;2023-11-18T13:41:52;100650.38;;;6.39;68.97
41515;BME280;27247;48.020;16.720;2023-11-18T13:46:03;100648.56;;;6.39;69.32
41515;BME280;27247;48.020;16.720;2023-11-18T13:50:16;100654.00;;;6.38;69.70
41515;BME280;27247;48.020;16.720;2023-11-18T13:54:30;100644.94;;;6.40;69.39
41515;BME280;27247;48.020;16.720;2023-11-18T13:58:43;100653.31;;;6.36;69.92
41515;BME280;27247;48.020;16.720;2023-11-18T14:02:56;100645.34;;;6.36;70.80
41515;BME280;27247;48.020;16.720;2023-11-18T14:07:07;100633.88;;;6.35;70.67
41515;BME280;27247;48.020;16.720;2023-11-18T14:11:19;100646.69;;;6.30;70.75
41515;BME280;27247;48.020;16.720;2023-11-18T14:15:30;100645.84;;;6.30;70.87
41515;BME280;27247;48.020;16.720;2023-11-18T14:19:40;100643.56;;;6.25;70.33
41515;BME280;27247;48.020;16.720;2023-11-18T14:23:51;100651.53;;;6.25;69.21
41515;BME280;27247;48.020;16.720;2023-11-18T14:28:03;100648.88;;;6.25;69.61
41515;BME280;27247;48.020;16.720;2023-11-18T14:32:14;100642.50;;;6.17;68.55
41515;BME280;27247;48.020;16.720;2023-11-18T14:36:25;100638.28;;;6.14;69.27
41515;BME280;27247;48.020;16.720;2023-11-18T14:40:36;100654.00;;;6.06;68.14
41515;BME280;27247;48.020;16.720;2023-11-18T14:44:46;100648.16;;;5.91;68.05
41515;BME280;27247;48.020;16.720;2023-11-18T14:48:57;100653.34;;;5.93;68.15
41515;BME280;27247;48.020;16.720;2023-11-18T14:53:07;100640.19;;;5.80;68.19
41515;BME280;27247;48.020;16.720;2023-11-18T14:57:18;100661.03;;;5.85;68.71
41515;BME280;27247;48.020;16.720;2023-11-18T15:01:29;100661.78;;;5.75;69.41
41515;BME280;27247;48.020;16.720;2023-11-18T15:05:39;100665.28;;;5.76;69.16
41515;BME280;27247;48.020;16.720;2023-11-18T15:09:49;100670.25;;;5.69;70.66
41515;BME280;27247;48.020;16.720;2023-11-18T15:14:00;100665.94;;;5.57;71.32
41515;BME280;27247;48.020;16.720;2023-11-18T15:18:11;100666.53;;;5.61;71.75
41515;BME280;27247;48.020;16.720;2023-11-18T15:22:27;100678.72;;;5.52;71.24
41515;BME280;27247;48.020;16.720;2023-11-18T15:26:37;100684.84;;;5.53;72.49
41515;BME280;27247;48.020;16.720;2023-11-18T15:30:47;100684.13;;;5.51;72.60
41515;BME280;27247;48.020;16.720;2023-11-18T15:34:58;100691.22;;;5.61;72.38
41515;BME280;27247;48.020;16.720;2023-11-18T15:39:09;100685.06;;;5.61;72.50
41515;BME280;27247;48.020;16.720;2023-11-18T15:43:19;100703.03;;;5.57;71.92
41515;BME280;27247;48.020;16.720;2023-11-18T15:47:30;100708.44;;;5.67;71.84
41515;BME280;27247;48.020;16.720;2023-11-18T15:51:40;100705.69;;;5.68;71.43
41515;BME280;27247;48.020;16.720;2023-11-18T15:55:50;100716.66;;;5.64;70.77
41515;BME280;27247;48.020;16.720;2023-11-18T16:00:02;100715.56;;;5.66;70.17
41515;BME280;27247;48.020;16.720;2023-11-18T16:04:15;100699.75;;;5.76;69.71
41515;BME280;27247;48.020;16.720;2023-11-18T16:08:26;100695.06;;;5.80;70.63
41515;BME280;27247;48.020;16.720;2023-11-18T16:12:36;100695.28;;;5.76;70.30
41515;BME280;27247;48.020;16.720;2023-11-18T16:16:47;100703.13;;;5.78;70.08
41515;BME280;27247;48.020;16.720;2023-11-18T16:20:58;100697.81;;;5.78;69.94
41515;BME280;27247;48.020;16.720;2023-11-18T16:25:12;100696.97;;;5.77;69.50
41515;BME280;27247;48.020;16.720;2023-11-18T16:29:23;100699.63;;;5.77;69.43
41515;BME280;27247;48.020;16.720;2023-11-18T16:33:33;100700.47;;;5.78;68.53
41515;BME280;27247;48.020;16.720;2023-11-18T16:37:43;100716.50;;;5.76;68.78
41515;BME280;27247;48.020;16.720;2023-11-18T16:41:54;100730.50;;;5.78;67.96
41515;BME280;27247;48.020;16.720;2023-11-18T16:46:04;100731.09;;;5.71;67.75
41515;BME280;27247;48.020;16.720;2023-11-18T16:50:17;100746.41;;;5.78;66.92
41515;BME280;27247;48.020;16.720;2023-11-18T16:54:28;100742.28;;;5.86;67.34
41515;BME280;27247;48.020;16.720;2023-11-18T16:58:38;100728.78;;;5.89;67.71
41515;BME280;27247;48.020;16.720;2023-11-18T17:02:52;100731.69;;;5.86;67.18
41515;BME280;27247;48.020;16.720;2023-11-18T17:07:06;100728.78;;;5.89;67.50
41515;BME280;27247;48.020;16.720;2023-11-18T17:11:17;100724.94;;;5.93;67.20
41515;BME280;27247;48.020;16.720;2023-11-18T17:15:27;100724.34;;;5.89;67.37
41515;BME280;27247;48.020;16.720;2023-11-18T17:19:38;100736.50;;;5.81;66.80
41515;BME280;27247;48.020;16.720;2023-11-18T17:23:49;100743.50;;;5.93;67.18
41515;BME280;27247;48.020;16.720;2023-11-18T17:28:00;100727.09;;;5.88;67.07
41515;BME280;27247;48.020;16.720;2023-11-18T17:32:14;100724.56;;;5.86;66.33
41515;BME280;27247;48.020;16.720;2023-11-18T17:36:24;100717.13;;;5.91;66.09
41515;BME280;27247;48.020;16.720;2023-11-18T17:40:35;100708.78;;;5.85;66.81
41515;BME280;27247;48.020;16.720;2023-11-18T17:44:45;100702.41;;;5.76;66.17
41515;BME280;27247;48.020;16.720;2023-11-18T17:48:56;100690.84;;;5.66;66.77
41515;BME280;27247;48.020;16.720;2023-11-18T17:53:06;100700.63;;;5.65;66.49
41515;BME280;27247;48.020;16.720;2023-11-18T17:57:18;100706.78;;;5.55;67.29
41515;BME280;27247;48.020;16.720;2023-11-18T18:01:28;100707.50;;;5.45;67.81
41515;BME280;27247;48.020;16.720;2023-11-18T18:05:38;100701.50;;;5.32;68.32
41515;BME280;27247;48.020;16.720;2023-11-18T18:09:49;100718.72;;;5.27;68.13
41515;BME280;27247;48.020;16.720;2023-11-18T18:13:59;100717.75;;;5.28;68.45
41515;BME280;27247;48.020;16.720;2023-11-18T18:18:10;100717.03;;;5.26;68.04
41515;BME280;27247;48.020;16.720;2023-11-18T18:22:20;100715.34;;;5.25;68.76
41515;BME280;27247;48.020;16.720;2023-11-18T18:26:31;100702.66;;;5.17;69.44
41515;BME280;27247;48.020;16.720;2023-11-18T18:30:41;100709.03;;;5.14;69.53
41515;BME280;27247;48.020;16.720;2023-11-18T18:34:51;100721.19;;;5.06;69.96
41515;BME280;27247;48.020;16.720;2023-11-18T18:39:02;100731.66;;;4.96;70.17
41515;BME280;27247;48.020;16.720;2023-11-18T18:43:13;100736.94;;;4.50;72.96
41515;BME280;27247;48.020;16.720;2023-11-18T18:47:23;100744.53;;;4.55;74.30
41515;BME280;27247;48.020;16.720;2023-11-18T18:51:33;100738.84;;;4.48;75.74
41515;BME280;27247;48.020;16.720;2023-11-18T18:55:44;100743.97;;;4.14;76.78
41515;BME280;27247;48.020;16.720;2023-11-18T18:59:54;100739.53;;;4.15;78.52
41515;BME280;27247;48.020;16.720;2023-11-18T19:04:05;100738.72;;;4.02;79.77
41515;BME280;27247;48.020;16.720;2023-11-18T19:08:16;100737.66;;;4.04;79.47
41515;BME280;27247;48.020;16.720;2023-11-18T19:12:26;100740.88;;;3.97;79.62
41515;BME280;27247;48.020;16.720;2023-11-18T19:16:36;100732.75;;;3.87;79.32
41515;BME280;27247;48.020;16.720;2023-11-18T19:20:48;100733.63;;;3.75;79.02
41515;BME280;27247;48.020;16.720;2023-11-18T19:25:00;100722.66;;;3.68;80.28
41515;BME280;27247;48.020;16.720;2023-11-18T19:29:11;100727.88;;;3.57;80.35
41515;BME280;27247;48.020;16.720;2023-11-18T19:33:21;100733.06;;;3.46;80.50
41515;BME280;27247;48.020;16.720;2023-11-18T19:37:32;100722.41;;;3.35;81.24
41515;BME280;27247;48.020;16.720;2023-11-18T19:41:43;100715.44;;;3.21;81.71
41515;BME280;27247;48.020;16.720;2023-11-18T19:45:53;100709.44;;;3.19;81.87
41515;BME280;27247;48.020;16.720;2023-11-18T19:50:04;100705.22;;;3.16;81.63
41515;BME280;27247;48.020;16.720;2023-11-18T19:54:15;100712.50;;;3.13;81.78
41515;BME280;27247;48.020;16.720;2023-11-18T19:58:25;100710.56;;;3.02;81.32
41515;BME280;27247;48.020;16.720;2023-11-18T20:02:36;100692.94;;;2.90;82.06
41515;BME280;27247;48.020;16.720;2023-11-18T20:06:48;100715.53;;;2.81;82.33
41515;BME280;27247;48.020;16.720;2023-11-18T20:10:58;100706.66;;;2.70;82.91
41515;BME280;27247;48.020;16.720;2023-11-18T20:15:09;100710.31;;;2.54;83.56
41515;BME280;27247;48.020;16.720;2023-11-18T20:19:21;100701.03;;;2.49;84.04
41515;BME280;27247;48.020;16.720;2023-11-18T20:23:32;100712.84;;;2.43;84.18
41515;BME280;27247;48.020;16.720;2023-11-18T20:27:42;100704.50;;;2.37;84.17
41515;BME280;27247;48.020;16.720;2023-11-18T20:31:53;100694.25;;;2.32;84.20
41515;BME280;27247;48.020;16.720;2023-11-18T20:36:04;100689.16;;;2.16;85.21
41515;BME280;27247;48.020;16.720;2023-11-18T20:40:14;100689.91;;;2.04;85.52
41515;BME280;27247;48.020;16.720;2023-11-18T20:44:31;100668.38;;;1.98;85.53
41515;BME280;27247;48.020;16.720;2023-11-18T20:48:41;100655.22;;;1.98;85.58
41515;BME280;27247;48.020;16.720;2023-11-18T20:52:55;100667.03;;;2.05;85.21
41515;BME280;27247;48.020;16.720;2023-11-18T20:57:06;100651.78;;;2.10;84.74
41515;BME280;27247;48.020;16.720;2023-11-18T21:01:16;100647.38;;;2.10;83.77
41515;BME280;27247;48.020;16.720;2023-11-18T21:05:27;100641.09;;;1.99;83.58
41515;BME280;27247;48.020;16.720;2023-11-18T21:09:37;100652.38;;;2.01;83.65
41515;BME280;27247;48.020;16.720;2023-11-18T21:13:49;100634.03;;;1.99;83.81
41515;BME280;27247;48.020;16.720;2023-11-18T21:18:03;100627.06;;;1.98;83.97
41515;BME280;27247;48.020;16.720;2023-11-18T21:22:18;100610.19;;;2.01;84.17
41515;BME280;27247;48.020;16.720;2023-11-18T21:26:28;100616.13;;;2.04;84.22
41515;BME280;27247;48.020;16.720;2023-11-18T21:30:39;100602.19;;;1.63;83.89
41515;BME280;27247;48.020;16.720;2023-11-18T21:34:49;100597.50;;;1.53;84.56
41515;BME280;27247;48.020;16.720;2023-11-18T21:38:59;100598.19;;;1.70;85.00
41515;BME280;27247;48.020;16.720;2023-11-18T21:43:09;100590.59;;;1.65;86.04
41515;BME280;27247;48.020;16.720;2023-11-18T21:47:20;100590.59;;;1.65;86.42
41515;BME280;27247;48.020;16.720;2023-11-18T21:51:30;100580.47;;;1.59;86.34
41515;BME280;27247;48.020;16.720;2023-11-18T21:55:41;100583.09;;;1.59;86.04
41515;BME280;27247;48.020;16.720;2023-11-18T21:59:52;100569.38;;;1.54;85.82
41515;BME280;27247;48.020;16.720;2023-11-18T22:04:02;100570.38;;;1.66;84.98
41515;BME280;27247;48.020;16.720;2023-11-18T22:08:13;100567.19;;;1.60;84.88
41515;BME280;27247;48.020;16.720;2023-11-18T22:12:34;100563.53;;;1.63;85.75
41515;BME280;27247;48.020;16.720;2023-11-18T22:16:47;100584.38;;;1.66;85.22
41515;BME280;27247;48.020;16.720;2023-11-18T22:20:57;100576.09;;;1.72;83.64
41515;BME280;27247;48.020;16.720;2023-11-18T22:25:08;100575.50;;;1.54;84.58